sensor_id;sensor_type;location;lat;lon;timestamp;noise_LAeq;noise_LA_min;noise_LA_max;noise_LA01;noise_LA95
66399;Laerm;54877;51.504;3.894;2023-06-10T00:01:53;34.97;33.70;42.94;;
66399;Laerm;54877;51.504;3.894;2023-06-10T00:04:23;34.92;33.69;38.25;;
66399;Laerm;54877;51.504;3.894;2023-06-10T00:06:48;37.41;33.32;69.44;;
66399;Laerm;54877;51.504;3.894;2023-06-10T00:09:14;35.12;33.68;45.07;;
66399;Laerm;54877;51.504;3.894;2023-06-10T00:11:40;35.31;33.76;46.48;;
66399;Laerm;54877;51.504;3.894;2023-06-10T00:14:06;35.15;33.35;55.79;;
66399;Laerm;54877;51.504;3.894;2023-06-10T00:16:32;41.99;33.36;60.09;;
66399;Laerm;54877;51.504;3.894;2023-06-10T00:19:02;34.91;33.54;36.30;;
66399;Laerm;54877;51.504;3.894;2023-06-10T00:21:29;35.05;33.48;44.16;;
66399;Laerm;54877;51.504;3.894;2023-06-10T00:23:55;42.78;33.58;60.25;;
66399;Laerm;54877;51.504;3.894;2023-06-10T00:26:23;35.66;33.70;55.84;;
66399;Laerm;54877;51.504;3.894;2023-06-10T00:28:49;34.94;33.48;36.79;;
66399;Laerm;54877;51.504;3.894;2023-06-10T00:31:15;34.99;33.44;49.48;;
66399;Laerm;54877;51.504;3.894;2023-06-10T00:33:40;36.35;33.56;55.11;;
66399;Laerm;54877;51.504;3.894;2023-06-10T00:36:05;35.40;34.09;41.04;;
66399;Laerm;54877;51.504;3.894;2023-06-10T00:38:31;35.07;33.70;43.57;;
66399;Laerm;54877;51.504;3.894;2023-06-10T00:40:57;35.41;33.65;52.56;;
66399;Laerm;54877;51.504;3.894;2023-06-10T00:43:22;35.49;33.70;48.97;;
66399;Laerm;54877;51.504;3.894;2023-06-10T00:45:47;34.93;33.52;38.34;;
66399;Laerm;54877;51.504;3.894;2023-06-10T00:48:13;34.93;33.46;39.27;;
66399;Laerm;54877;51.504;3.894;2023-06-10T00:50:38;38.20;33.49;54.11;;
66399;Laerm;54877;51.504;3.894;2023-06-10T00:53:07;34.98;33.73;41.81;;
66399;Laerm;54877;51.504;3.894;2023-06-10T00:55:34;35.29;33.66;44.68;;
66399;Laerm;54877;51.504;3.894;2023-06-10T00:57:59;35.47;33.65;48.03;;
66399;Laerm;54877;51.504;3.894;2023-06-10T01:00:25;35.02;33.56;40.36;;
66399;Laerm;54877;51.504;3.894;2023-06-10T01:02:51;34.92;33.52;45.66;;
66399;Laerm;54877;51.504;3.894;2023-06-10T01:05:17;35.26;33.66;46.00;;
66399;Laerm;54877;51.504;3.894;2023-06-10T01:07:51;36.43;33.62;49.56;;
66399;Laerm;54877;51.504;3.894;2023-06-10T01:10:38;35.03;33.58;37.14;;
66399;Laerm;54877;51.504;3.894;2023-06-10T01:13:07;34.91;33.46;44.48;;
66399;Laerm;54877;51.504;3.894;2023-06-10T01:15:37;34.96;33.61;47.69;;
66399;Laerm;54877;51.504;3.894;2023-06-10T01:18:04;34.99;33.66;42.36;;
66399;Laerm;54877;51.504;3.894;2023-06-10T01:20:33;34.95;33.51;38.99;;
66399;Laerm;54877;51.504;3.894;2023-06-10T01:23:00;35.00;33.61;53.73;;
66399;Laerm;54877;51.504;3.894;2023-06-10T01:25:29;35.39;33.68;51.78;;
66399;Laerm;54877;51.504;3.894;2023-06-10T01:30:59;46.55;33.72;66.98;;
66399;Laerm;54877;51.504;3.894;2023-06-10T01:33:31;35.41;33.69;48.69;;
66399;Laerm;54877;51.504;3.894;2023-06-10T01:35:59;36.34;33.35;65.60;;
66399;Laerm;54877;51.504;3.894;2023-06-10T01:38:26;36.86;33.61;66.37;;
66399;Laerm;54877;51.504;3.894;2023-06-10T01:40:53;35.80;33.30;60.71;;
66399;Laerm;54877;51.504;3.894;2023-06-10T01:43:20;34.88;33.61;36.06;;
66399;Laerm;54877;51.504;3.894;2023-06-10T01:45:46;34.87;33.49;36.11;;
66399;Laerm;54877;51.504;3.894;2023-06-10T01:48:11;34.87;33.69;36.82;;
66399;Laerm;54877;51.504;3.894;2023-06-10T01:50:36;34.93;33.55;36.13;;
66399;Laerm;54877;51.504;3.894;2023-06-10T01:53:03;34.92;33.56;36.24;;
66399;Laerm;54877;51.504;3.894;2023-06-10T01:55:28;36.95;33.68;56.20;;
66399;Laerm;54877;51.504;3.894;2023-06-10T01:57:53;37.80;33.68;56.76;;
66399;Laerm;54877;51.504;3.894;2023-06-10T02:00:19;35.81;33.23;58.99;;
66399;Laerm;54877;51.504;3.894;2023-06-10T02:02:44;37.06;33.59;63.35;;
66399;Laerm;54877;51.504;3.894;2023-06-10T02:05:10;37.06;33.69;58.10;;
66399;Laerm;54877;51.504;3.894;2023-06-10T02:07:35;46.10;33.48;64.71;;
66399;Laerm;54877;51.504;3.894;2023-06-10T02:10:00;35.00;33.66;52.62;;
66399;Laerm;54877;51.504;3.894;2023-06-10T02:12:26;36.25;33.54;56.58;;
66399;Laerm;54877;51.504;3.894;2023-06-10T02:14:51;36.52;33.62;55.66;;
66399;Laerm;54877;51.504;3.894;2023-06-10T02:17:17;36.06;33.67;59.13;;
66399;Laerm;54877;51.504;3.894;2023-06-10T02:19:42;36.00;33.66;55.58;;
66399;Laerm;54877;51.504;3.894;2023-06-10T02:22:08;35.21;33.47;57.82;;
66399;Laerm;54877;51.504;3.894;2023-06-10T02:24:36;35.10;33.64;56.21;;
66399;Laerm;54877;51.504;3.894;2023-06-10T02:27:03;34.98;33.59;39.49;;
66399;Laerm;54877;51.504;3.894;2023-06-10T02:29:29;35.17;33.76;51.94;;
66399;Laerm;54877;51.504;3.894;2023-06-10T02:31:54;35.09;33.45;36.95;;
66399;Laerm;54877;51.504;3.894;2023-06-10T02:34:19;36.11;33.81;58.61;;
66399;Laerm;54877;51.504;3.894;2023-06-10T02:36:45;36.98;33.75;66.18;;
66399;Laerm;54877;51.504;3.894;2023-06-10T02:39:10;35.22;33.69;37.49;;
66399;Laerm;54877;51.504;3.894;2023-06-10T02:41:35;35.28;33.93;40.91;;
66399;Laerm;54877;51.504;3.894;2023-06-10T02:44:01;35.26;33.74;42.19;;
66399;Laerm;54877;51.504;3.894;2023-06-10T02:46:26;35.14;33.71;37.80;;
66399;Laerm;54877;51.504;3.894;2023-06-10T02:48:53;35.19;33.84;37.67;;
66399;Laerm;54877;51.504;3.894;2023-06-10T02:51:19;36.19;33.76;57.66;;
66399;Laerm;54877;51.504;3.894;2023-06-10T02:53:44;36.25;33.93;55.85;;
66399;Laerm;54877;51.504;3.894;2023-06-10T02:56:10;36.09;33.85;60.17;;
66399;Laerm;54877;51.504;3.894;2023-06-10T02:58:36;36.43;33.65;57.46;;
66399;Laerm;54877;51.504;3.894;2023-06-10T03:01:02;37.43;33.60;55.12;;
66399;Laerm;54877;51.504;3.894;2023-06-10T03:03:27;37.23;33.65;57.60;;
66399;Laerm;54877;51.504;3.894;2023-06-10T03:05:52;36.59;33.81;45.99;;
66399;Laerm;54877;51.504;3.894;2023-06-10T03:08:18;36.68;33.91;46.05;;
66399;Laerm;54877;51.504;3.894;2023-06-10T03:10:43;36.79;33.28;46.95;;
66399;Laerm;54877;51.504;3.894;2023-06-10T03:13:09;37.72;33.98;47.71;;
66399;Laerm;54877;51.504;3.894;2023-06-10T03:15:35;36.89;33.82;46.90;;
66399;Laerm;54877;51.504;3.894;2023-06-10T03:18:01;39.55;33.77;56.19;;
66399;Laerm;54877;51.504;3.894;2023-06-10T03:20:27;38.78;33.76;50.24;;
66399;Laerm;54877;51.504;3.894;2023-06-10T03:22:54;39.61;33.73;60.14;;
66399;Laerm;54877;51.504;3.894;2023-06-10T03:25:19;39.03;33.74;50.94;;
66399;Laerm;54877;51.504;3.894;2023-06-10T03:27:46;36.17;33.46;51.55;;
66399;Laerm;54877;51.504;3.894;2023-06-10T03:30:12;35.51;33.81;48.02;;
66399;Laerm;54877;51.504;3.894;2023-06-10T03:32:38;37.73;33.64;50.86;;
66399;Laerm;54877;51.504;3.894;2023-06-10T03:35:04;38.04;33.68;50.47;;
66399;Laerm;54877;51.504;3.894;2023-06-10T03:37:29;37.71;33.86;50.40;;
66399;Laerm;54877;51.504;3.894;2023-06-10T03:39:54;35.14;33.63;38.92;;
66399;Laerm;54877;51.504;3.894;2023-06-10T03:42:20;35.60;33.73;55.83;;
66399;Laerm;54877;51.504;3.894;2023-06-10T03:44:45;38.51;33.79;50.32;;
66399;Laerm;54877;51.504;3.894;2023-06-10T03:47:10;45.91;33.80;65.98;;
66399;Laerm;54877;51.504;3.894;2023-06-10T03:49:37;36.18;33.65;46.39;;
66399;Laerm;54877;51.504;3.894;2023-06-10T03:52:03;35.07;33.59;43.86;;
66399;Laerm;54877;51.504;3.894;2023-06-10T03:54:28;35.54;33.70;41.00;;
66399;Laerm;54877;51.504;3.894;2023-06-10T03:56:54;37.44;33.63;61.89;;
66399;Laerm;54877;51.504;3.894;2023-06-10T03:59:19;35.61;33.76;57.59;;
66399;Laerm;54877;51.504;3.894;2023-06-10T04:01:44;36.41;33.70;48.27;;
66399;Laerm;54877;51.504;3.894;2023-06-10T04:04:13;39.56;33.83;59.78;;
66399;Laerm;54877;51.504;3.894;2023-06-10T04:06:38;36.95;33.84;51.76;;
66399;Laerm;54877;51.504;3.894;2023-06-10T04:09:04;35.24;33.76;56.70;;
66399;Laerm;54877;51.504;3.894;2023-06-10T04:11:30;35.22;33.77;39.80;;
66399;Laerm;54877;51.504;3.894;2023-06-10T04:13:55;36.48;33.74;56.76;;
66399;Laerm;54877;51.504;3.894;2023-06-10T04:16:20;36.61;33.58;54.74;;
66399;Laerm;54877;51.504;3.894;2023-06-10T04:18:46;35.64;33.67;52.64;;
66399;Laerm;54877;51.504;3.894;2023-06-10T04:21:12;35.53;33.67;45.13;;
66399;Laerm;54877;51.504;3.894;2023-06-10T04:23:37;35.60;33.90;45.71;;
66399;Laerm;54877;51.504;3.894;2023-06-10T04:26:03;35.58;33.73;44.14;;
66399;Laerm;54877;51.504;3.894;2023-06-10T04:28:30;36.29;33.67;51.94;;
66399;Laerm;54877;51.504;3.894;2023-06-10T04:30:56;36.06;33.72;44.77;;
66399;Laerm;54877;51.504;3.894;2023-06-10T04:33:21;37.49;33.74;55.18;;
66399;Laerm;54877;51.504;3.894;2023-06-10T04:35:46;46.51;33.42;65.37;;
66399;Laerm;54877;51.504;3.894;2023-06-10T04:38:13;36.15;33.62;45.52;;
66399;Laerm;54877;51.504;3.894;2023-06-10T04:40:38;35.16;33.82;42.06;;
66399;Laerm;54877;51.504;3.894;2023-06-10T04:43:04;35.49;33.97;40.36;;
66399;Laerm;54877;51.504;3.894;2023-06-10T04:45:29;35.49;33.74;52.54;;
66399;Laerm;54877;51.504;3.894;2023-06-10T04:47:56;35.40;33.64;40.34;;
66399;Laerm;54877;51.504;3.894;2023-06-10T04:50:23;38.93;33.97;57.27;;
66399;Laerm;54877;51.504;3.894;2023-06-10T04:52:48;37.51;33.73;60.66;;
66399;Laerm;54877;51.504;3.894;2023-06-10T04:55:15;36.15;33.99;48.30;;
66399;Laerm;54877;51.504;3.894;2023-06-10T04:57:40;35.72;34.13;47.42;;
66399;Laerm;54877;51.504;3.894;2023-06-10T05:00:06;35.64;33.98;45.13;;
66399;Laerm;54877;51.504;3.894;2023-06-10T05:02:31;35.56;34.16;46.90;;
66399;Laerm;54877;51.504;3.894;2023-06-10T05:04:57;38.54;34.06;51.64;;
66399;Laerm;54877;51.504;3.894;2023-06-10T05:07:23;36.58;34.25;51.34;;
66399;Laerm;54877;51.504;3.894;2023-06-10T05:09:48;36.17;34.41;43.34;;
66399;Laerm;54877;51.504;3.894;2023-06-10T05:12:14;36.41;34.34;46.58;;
66399;Laerm;54877;51.504;3.894;2023-06-10T05:14:39;37.75;34.31;49.57;;
66399;Laerm;54877;51.504;3.894;2023-06-10T05:17:05;36.06;34.30;46.13;;
66399;Laerm;54877;51.504;3.894;2023-06-10T05:19:33;38.89;34.49;65.83;;
66399;Laerm;54877;51.504;3.894;2023-06-10T05:21:58;36.01;34.29;49.76;;
66399;Laerm;54877;51.504;3.894;2023-06-10T05:24:23;38.14;34.42;49.87;;
66399;Laerm;54877;51.504;3.894;2023-06-10T05:26:49;39.42;34.21;48.47;;
66399;Laerm;54877;51.504;3.894;2023-06-10T05:29:14;42.51;34.45;57.81;;
66399;Laerm;54877;51.504;3.894;2023-06-10T05:31:41;36.11;34.37;51.95;;
66399;Laerm;54877;51.504;3.894;2023-06-10T05:34:06;37.39;34.37;54.50;;
66399;Laerm;54877;51.504;3.894;2023-06-10T05:36:31;38.55;34.44;55.82;;
66399;Laerm;54877;51.504;3.894;2023-06-10T05:38:57;36.35;34.23;47.68;;
66399;Laerm;54877;51.504;3.894;2023-06-10T05:41:22;48.75;34.41;67.78;;
66399;Laerm;54877;51.504;3.894;2023-06-10T05:43:48;36.42;34.45;54.43;;
66399;Laerm;54877;51.504;3.894;2023-06-10T05:46:13;45.58;34.60;64.43;;
66399;Laerm;54877;51.504;3.894;2023-06-10T05:48:39;36.02;34.42;46.80;;
66399;Laerm;54877;51.504;3.894;2023-06-10T05:51:04;37.58;34.18;53.53;;
66399;Laerm;54877;51.504;3.894;2023-06-10T05:53:30;45.18;34.57;64.68;;
66399;Laerm;54877;51.504;3.894;2023-06-10T05:55:55;45.62;34.63;63.13;;
66399;Laerm;54877;51.504;3.894;2023-06-10T05:58:23;40.78;34.46;53.04;;
66399;Laerm;54877;51.504;3.894;2023-06-10T06:00:48;46.09;34.65;64.82;;
66399;Laerm;54877;51.504;3.894;2023-06-10T06:03:13;39.55;34.63;58.31;;
66399;Laerm;54877;51.504;3.894;2023-06-10T06:05:39;35.94;34.25;42.37;;
66399;Laerm;54877;51.504;3.894;2023-06-10T06:08:04;46.45;34.48;65.03;;
66399;Laerm;54877;51.504;3.894;2023-06-10T06:10:31;37.08;34.56;50.46;;
66399;Laerm;54877;51.504;3.894;2023-06-10T06:12:56;40.59;34.45;64.81;;
66399;Laerm;54877;51.504;3.894;2023-06-10T06:15:22;37.44;34.38;53.03;;
66399;Laerm;54877;51.504;3.894;2023-06-10T06:17:47;38.02;34.53;56.45;;
66399;Laerm;54877;51.504;3.894;2023-06-10T06:20:13;37.59;34.48;59.10;;
66399;Laerm;54877;51.504;3.894;2023-06-10T06:22:38;46.14;34.00;65.33;;
66399;Laerm;54877;51.504;3.894;2023-06-10T06:25:04;49.27;34.51;68.80;;
66399;Laerm;54877;51.504;3.894;2023-06-10T06:27:30;47.80;34.25;66.47;;
66399;Laerm;54877;51.504;3.894;2023-06-10T06:29:56;51.44;34.40;68.06;;
66399;Laerm;54877;51.504;3.894;2023-06-10T06:32:21;41.05;34.35;61.27;;
66399;Laerm;54877;51.504;3.894;2023-06-10T06:34:47;47.42;34.84;65.11;;
66399;Laerm;54877;51.504;3.894;2023-06-10T06:37:14;38.32;34.72;56.00;;
66399;Laerm;54877;51.504;3.894;2023-06-10T06:39:40;38.86;34.47;65.68;;
66399;Laerm;54877;51.504;3.894;2023-06-10T06:42:05;38.29;34.34;51.81;;
66399;Laerm;54877;51.504;3.894;2023-06-10T06:44:31;36.59;34.39;50.48;;
66399;Laerm;54877;51.504;3.894;2023-06-10T06:46:56;44.24;34.32;62.62;;
66399;Laerm;54877;51.504;3.894;2023-06-10T06:49:21;49.86;34.67;67.94;;
66399;Laerm;54877;51.504;3.894;2023-06-10T06:51:47;44.59;34.83;61.43;;
66399;Laerm;54877;51.504;3.894;2023-06-10T06:54:12;38.19;34.36;53.79;;
66399;Laerm;54877;51.504;3.894;2023-06-10T06:56:37;36.62;34.59;49.35;;
66399;Laerm;54877;51.504;3.894;2023-06-10T06:59:03;38.32;34.52;58.52;;
66399;Laerm;54877;51.504;3.894;2023-06-10T07:01:29;44.67;34.76;62.35;;
66399;Laerm;54877;51.504;3.894;2023-06-10T07:03:55;38.16;34.81;57.77;;
66399;Laerm;54877;51.504;3.894;2023-06-10T07:06:20;37.76;34.75;51.28;;
66399;Laerm;54877;51.504;3.894;2023-06-10T07:08:45;46.10;34.74;63.15;;
66399;Laerm;54877;51.504;3.894;2023-06-10T07:11:11;49.09;35.28;66.19;;
66399;Laerm;54877;51.504;3.894;2023-06-10T07:13:36;43.19;34.71;60.58;;
66399;Laerm;54877;51.504;3.894;2023-06-10T07:16:01;41.16;34.90;58.79;;
66399;Laerm;54877;51.504;3.894;2023-06-10T07:18:27;39.62;34.67;58.99;;
66399;Laerm;54877;51.504;3.894;2023-06-10T07:20:52;39.43;34.64;57.41;;
66399;Laerm;54877;51.504;3.894;2023-06-10T07:23:18;45.08;34.52;63.25;;
66399;Laerm;54877;51.504;3.894;2023-06-10T07:25:43;41.52;34.78;63.52;;
66399;Laerm;54877;51.504;3.894;2023-06-10T07:28:08;36.96;34.47;55.18;;
66399;Laerm;54877;51.504;3.894;2023-06-10T07:30:34;40.12;34.70;59.90;;
66399;Laerm;54877;51.504;3.894;2023-06-10T07:32:59;39.74;34.76;57.82;;
66399;Laerm;54877;51.504;3.894;2023-06-10T07:35:25;41.19;34.70;58.18;;
66399;Laerm;54877;51.504;3.894;2023-06-10T07:37:50;51.09;34.61;67.25;;
66399;Laerm;54877;51.504;3.894;2023-06-10T07:40:15;37.86;34.46;59.02;;
66399;Laerm;54877;51.504;3.894;2023-06-10T07:42:41;36.94;34.62;52.31;;
66399;Laerm;54877;51.504;3.894;2023-06-10T07:45:07;49.05;34.35;65.59;;
66399;Laerm;54877;51.504;3.894;2023-06-10T07:47:33;48.46;34.50;66.45;;
66399;Laerm;54877;51.504;3.894;2023-06-10T07:49:58;48.07;34.69;65.96;;
66399;Laerm;54877;51.504;3.894;2023-06-10T07:52:24;40.04;34.64;56.45;;
66399;Laerm;54877;51.504;3.894;2023-06-10T07:54:49;48.07;34.81;68.26;;
66399;Laerm;54877;51.504;3.894;2023-06-10T07:57:15;47.16;34.98;64.01;;
66399;Laerm;54877;51.504;3.894;2023-06-10T07:59:40;50.10;34.56;66.06;;
66399;Laerm;54877;51.504;3.894;2023-06-10T08:02:06;46.65;34.91;65.51;;
66399;Laerm;54877;51.504;3.894;2023-06-10T08:04:31;40.88;34.34;61.77;;
66399;Laerm;54877;51.504;3.894;2023-06-10T08:06:57;41.55;34.89;56.84;;
66399;Laerm;54877;51.504;3.894;2023-06-10T08:09:22;42.39;34.88;59.69;;
66399;Laerm;54877;51.504;3.894;2023-06-10T08:11:48;46.51;34.89;64.11;;
66399;Laerm;54877;51.504;3.894;2023-06-10T08:14:14;49.28;34.74;66.93;;
66399;Laerm;54877;51.504;3.894;2023-06-10T08:16:39;38.10;34.78;54.08;;
66399;Laerm;54877;51.504;3.894;2023-06-10T08:19:04;40.58;35.11;58.76;;
66399;Laerm;54877;51.504;3.894;2023-06-10T08:21:30;46.60;34.71;65.15;;
66399;Laerm;54877;51.504;3.894;2023-06-10T08:23:56;40.62;34.90;59.03;;
66399;Laerm;54877;51.504;3.894;2023-06-10T08:26:22;40.86;34.83;59.26;;
66399;Laerm;54877;51.504;3.894;2023-06-10T08:28:47;44.28;34.73;61.56;;
66399;Laerm;54877;51.504;3.894;2023-06-10T08:31:12;46.54;34.97;68.49;;
66399;Laerm;54877;51.504;3.894;2023-06-10T08:33:38;38.60;34.56;50.81;;
66399;Laerm;54877;51.504;3.894;2023-06-10T08:36:03;41.34;34.39;63.11;;
66399;Laerm;54877;51.504;3.894;2023-06-10T08:38:28;44.00;34.83;59.27;;
66399;Laerm;54877;51.504;3.894;2023-06-10T08:40:56;46.53;34.69;65.03;;
66399;Laerm;54877;51.504;3.894;2023-06-10T08:43:33;44.64;34.69;66.83;;
66399;Laerm;54877;51.504;3.894;2023-06-10T08:46:01;44.11;34.79;60.19;;
66399;Laerm;54877;51.504;3.894;2023-06-10T08:48:29;47.91;34.88;71.97;;
66399;Laerm;54877;51.504;3.894;2023-06-10T08:50:57;40.00;34.61;64.48;;
66399;Laerm;54877;51.504;3.894;2023-06-10T08:53:23;49.56;34.67;68.54;;
66399;Laerm;54877;51.504;3.894;2023-06-10T08:55:50;45.90;34.92;62.85;;
66399;Laerm;54877;51.504;3.894;2023-06-10T08:58:20;44.82;35.77;66.95;;
66399;Laerm;54877;51.504;3.894;2023-06-10T09:00:46;40.05;34.69;58.40;;
66399;Laerm;54877;51.504;3.894;2023-06-10T09:03:11;51.34;34.51;69.90;;
66399;Laerm;54877;51.504;3.894;2023-06-10T09:05:37;45.89;34.92;63.54;;
66399;Laerm;54877;51.504;3.894;2023-06-10T09:08:03;40.86;34.70;61.97;;
66399;Laerm;54877;51.504;3.894;2023-06-10T09:10:29;38.03;34.84;54.57;;
66399;Laerm;54877;51.504;3.894;2023-06-10T09:12:54;53.09;34.79;71.85;;
66399;Laerm;54877;51.504;3.894;2023-06-10T09:15:20;50.64;34.77;67.62;;
66399;Laerm;54877;51.504;3.894;2023-06-10T09:17:45;38.63;34.90;51.42;;
66399;Laerm;54877;51.504;3.894;2023-06-10T09:20:11;39.87;34.80;54.49;;
66399;Laerm;54877;51.504;3.894;2023-06-10T09:22:37;41.65;35.31;59.50;;
66399;Laerm;54877;51.504;3.894;2023-06-10T09:25:03;40.49;34.85;57.43;;
66399;Laerm;54877;51.504;3.894;2023-06-10T09:27:30;42.71;34.87;60.88;;
66399;Laerm;54877;51.504;3.894;2023-06-10T09:29:57;51.11;35.09;70.16;;
66399;Laerm;54877;51.504;3.894;2023-06-10T09:32:23;38.30;34.58;55.87;;
66399;Laerm;54877;51.504;3.894;2023-06-10T09:34:49;43.57;34.58;60.68;;
66399;Laerm;54877;51.504;3.894;2023-06-10T09:37:23;40.12;34.69;58.24;;
66399;Laerm;54877;51.504;3.894;2023-06-10T09:40:03;48.20;34.83;67.06;;
66399;Laerm;54877;51.504;3.894;2023-06-10T09:42:35;48.86;34.71;66.41;;
66399;Laerm;54877;51.504;3.894;2023-06-10T09:45:02;39.23;34.72;59.87;;
66399;Laerm;54877;51.504;3.894;2023-06-10T09:47:27;39.63;35.00;61.24;;
66399;Laerm;54877;51.504;3.894;2023-06-10T09:49:53;38.78;34.74;61.18;;
66399;Laerm;54877;51.504;3.894;2023-06-10T09:52:36;45.10;35.06;64.88;;
66399;Laerm;54877;51.504;3.894;2023-06-10T09:55:02;45.82;34.72;67.10;;
66399;Laerm;54877;51.504;3.894;2023-06-10T09:57:32;49.07;35.14;68.20;;
66399;Laerm;54877;51.504;3.894;2023-06-10T10:00:09;50.15;34.98;65.76;;
66399;Laerm;54877;51.504;3.894;2023-06-10T10:02:46;42.76;34.80;66.59;;
66399;Laerm;54877;51.504;3.894;2023-06-10T10:05:14;46.18;34.92;64.82;;
66399;Laerm;54877;51.504;3.894;2023-06-10T10:07:40;45.01;34.87;65.61;;
66399;Laerm;54877;51.504;3.894;2023-06-10T10:10:06;42.29;35.09;58.90;;
66399;Laerm;54877;51.504;3.894;2023-06-10T10:12:34;47.06;34.68;66.66;;
66399;Laerm;54877;51.504;3.894;2023-06-10T10:15:00;48.40;35.06;65.41;;
66399;Laerm;54877;51.504;3.894;2023-06-10T10:17:27;40.35;34.57;60.78;;
66399;Laerm;54877;51.504;3.894;2023-06-10T10:19:58;50.21;34.69;69.64;;
66399;Laerm;54877;51.504;3.894;2023-06-10T10:22:34;37.70;34.61;50.82;;
66399;Laerm;54877;51.504;3.894;2023-06-10T10:25:02;37.91;34.72;57.42;;
66399;Laerm;54877;51.504;3.894;2023-06-10T10:27:36;41.32;35.21;55.45;;
66399;Laerm;54877;51.504;3.894;2023-06-10T10:30:05;43.79;34.68;58.74;;
66399;Laerm;54877;51.504;3.894;2023-06-10T10:32:57;41.81;34.76;63.09;;
66399;Laerm;54877;51.504;3.894;2023-06-10T10:35:24;39.96;34.83;61.55;;
66399;Laerm;54877;51.504;3.894;2023-06-10T10:37:54;38.23;34.74;55.92;;
66399;Laerm;54877;51.504;3.894;2023-06-10T10:40:21;48.20;35.24;65.32;;
66399;Laerm;54877;51.504;3.894;2023-06-10T10:42:48;42.13;35.02;61.26;;
66399;Laerm;54877;51.504;3.894;2023-06-10T10:45:14;41.61;34.80;55.65;;
66399;Laerm;54877;51.504;3.894;2023-06-10T10:47:41;48.63;34.86;67.24;;
66399;Laerm;54877;51.504;3.894;2023-06-10T10:50:18;39.64;35.12;57.41;;
66399;Laerm;54877;51.504;3.894;2023-06-10T10:55:18;49.44;35.08;66.36;;
66399;Laerm;54877;51.504;3.894;2023-06-10T10:57:44;45.65;34.99;63.68;;
66399;Laerm;54877;51.504;3.894;2023-06-10T11:00:10;48.89;34.72;67.22;;
66399;Laerm;54877;51.504;3.894;2023-06-10T11:02:45;38.82;34.55;59.88;;
66399;Laerm;54877;51.504;3.894;2023-06-10T11:05:14;52.23;34.94;71.89;;
66399;Laerm;54877;51.504;3.894;2023-06-10T11:07:40;51.35;35.14;67.41;;
66399;Laerm;54877;51.504;3.894;2023-06-10T11:10:06;53.69;34.92;72.70;;
66399;Laerm;54877;51.504;3.894;2023-06-10T11:12:47;41.63;34.99;71.49;;
66399;Laerm;54877;51.504;3.894;2023-06-10T11:15:13;40.93;34.77;59.05;;
66399;Laerm;54877;51.504;3.894;2023-06-10T11:23:08;47.17;34.77;66.16;;
66399;Laerm;54877;51.504;3.894;2023-06-10T11:25:40;45.43;34.77;69.38;;
66399;Laerm;54877;51.504;3.894;2023-06-10T11:28:19;47.18;34.97;68.87;;
66399;Laerm;54877;51.504;3.894;2023-06-10T11:30:45;43.02;35.28;63.74;;
66399;Laerm;54877;51.504;3.894;2023-06-10T11:33:16;39.19;34.64;59.03;;
66399;Laerm;54877;51.504;3.894;2023-06-10T11:35:42;38.01;34.75;57.62;;
66399;Laerm;54877;51.504;3.894;2023-06-10T11:38:08;43.88;35.15;57.31;;
66399;Laerm;54877;51.504;3.894;2023-06-10T11:40:34;41.22;34.70;61.58;;
66399;Laerm;54877;51.504;3.894;2023-06-10T11:43:00;39.19;34.57;58.12;;
66399;Laerm;54877;51.504;3.894;2023-06-10T11:45:26;40.12;34.60;57.94;;
66399;Laerm;54877;51.504;3.894;2023-06-10T11:47:58;45.88;34.97;60.79;;
66399;Laerm;54877;51.504;3.894;2023-06-10T11:50:31;48.81;35.02;66.01;;
66399;Laerm;54877;51.504;3.894;2023-06-10T11:52:56;50.58;34.79;68.12;;
66399;Laerm;54877;51.504;3.894;2023-06-10T11:55:23;44.64;35.03;61.19;;
66399;Laerm;54877;51.504;3.894;2023-06-10T11:57:48;49.89;35.68;68.38;;
66399;Laerm;54877;51.504;3.894;2023-06-10T12:00:22;51.82;34.76;77.78;;
66399;Laerm;54877;51.504;3.894;2023-06-10T12:02:55;41.58;34.76;69.65;;
66399;Laerm;54877;51.504;3.894;2023-06-10T12:05:22;44.98;34.69;66.01;;
66399;Laerm;54877;51.504;3.894;2023-06-10T12:07:47;39.70;34.71;58.38;;
66399;Laerm;54877;51.504;3.894;2023-06-10T12:10:13;44.32;34.49;59.49;;
66399;Laerm;54877;51.504;3.894;2023-06-10T12:12:38;40.17;34.88;53.87;;
66399;Laerm;54877;51.504;3.894;2023-06-10T12:15:04;38.92;34.77;59.62;;
66399;Laerm;54877;51.504;3.894;2023-06-10T12:19:57;52.46;34.86;69.76;;
66399;Laerm;54877;51.504;3.894;2023-06-10T12:22:22;41.52;34.71;64.18;;
66399;Laerm;54877;51.504;3.894;2023-06-10T12:27:29;47.91;35.05;67.28;;
66399;Laerm;54877;51.504;3.894;2023-06-10T12:29:56;45.62;34.94;71.75;;
66399;Laerm;54877;51.504;3.894;2023-06-10T12:32:55;44.91;34.85;69.81;;
66399;Laerm;54877;51.504;3.894;2023-06-10T12:35:27;42.51;34.56;66.75;;
66399;Laerm;54877;51.504;3.894;2023-06-10T12:38:06;42.67;34.82;65.70;;
66399;Laerm;54877;51.504;3.894;2023-06-10T12:40:38;49.15;34.88;67.56;;
66399;Laerm;54877;51.504;3.894;2023-06-10T12:43:05;37.78;34.67;53.16;;
66399;Laerm;54877;51.504;3.894;2023-06-10T12:45:32;42.40;35.02;67.58;;
66399;Laerm;54877;51.504;3.894;2023-06-10T12:48:24;38.63;34.60;56.38;;
66399;Laerm;54877;51.504;3.894;2023-06-10T12:50:57;43.79;34.88;65.65;;
66399;Laerm;54877;51.504;3.894;2023-06-10T12:53:24;41.68;34.67;63.54;;
66399;Laerm;54877;51.504;3.894;2023-06-10T12:55:50;38.03;34.68;54.10;;
66399;Laerm;54877;51.504;3.894;2023-06-10T12:58:16;38.60;34.65;61.94;;
66399;Laerm;54877;51.504;3.894;2023-06-10T13:00:41;44.77;34.83;71.10;;
66399;Laerm;54877;51.504;3.894;2023-06-10T13:03:08;38.78;34.76;61.25;;
66399;Laerm;54877;51.504;3.894;2023-06-10T13:05:37;49.19;34.62;68.10;;
66399;Laerm;54877;51.504;3.894;2023-06-10T13:08:08;50.11;34.87;70.41;;
66399;Laerm;54877;51.504;3.894;2023-06-10T13:10:35;37.33;34.62;54.53;;
66399;Laerm;54877;51.504;3.894;2023-06-10T13:13:01;54.20;34.85;74.49;;
66399;Laerm;54877;51.504;3.894;2023-06-10T13:15:27;40.45;34.73;65.15;;
66399;Laerm;54877;51.504;3.894;2023-06-10T13:17:53;36.84;34.71;53.03;;
66399;Laerm;54877;51.504;3.894;2023-06-10T13:20:19;41.53;34.90;65.20;;
66399;Laerm;54877;51.504;3.894;2023-06-10T13:22:44;39.79;34.77;66.39;;
66399;Laerm;54877;51.504;3.894;2023-06-10T13:25:10;39.94;34.64;61.85;;
66399;Laerm;54877;51.504;3.894;2023-06-10T13:27:36;40.56;34.74;63.24;;
66399;Laerm;54877;51.504;3.894;2023-06-10T13:30:08;47.92;34.74;65.74;;
66399;Laerm;54877;51.504;3.894;2023-06-10T13:32:35;38.66;34.93;56.02;;
66399;Laerm;54877;51.504;3.894;2023-06-10T13:35:00;42.44;34.75;58.30;;
66399;Laerm;54877;51.504;3.894;2023-06-10T13:37:25;45.57;35.59;66.16;;
66399;Laerm;54877;51.504;3.894;2023-06-10T13:39:51;40.57;35.15;63.14;;
66399;Laerm;54877;51.504;3.894;2023-06-10T13:42:17;46.99;34.82;64.91;;
66399;Laerm;54877;51.504;3.894;2023-06-10T13:44:43;45.99;34.89;62.75;;
66399;Laerm;54877;51.504;3.894;2023-06-10T13:47:08;44.06;34.80;61.12;;
66399;Laerm;54877;51.504;3.894;2023-06-10T13:49:33;39.06;35.14;53.21;;
66399;Laerm;54877;51.504;3.894;2023-06-10T13:51:59;45.30;34.72;62.90;;
66399;Laerm;54877;51.504;3.894;2023-06-10T13:54:24;41.41;35.20;52.06;;
66399;Laerm;54877;51.504;3.894;2023-06-10T13:56:49;47.18;34.74;65.05;;
66399;Laerm;54877;51.504;3.894;2023-06-10T13:59:15;48.28;35.13;65.59;;